Time;durP1;ratioP1;P1;durP2;ratioP2;P2;SDS_P1;SDS_P2;PMS_P1;PMS_P2;Temp;Humidity;BMP_temperature;BMP_pressure;BME280_temperature;BME280_humidity;BME280_pressure;Samples;Min_cycle;Max_cycle;Signal;HPM_P1;HPM_P2
2023/03/26 00:01:06;;;;;;;1.98;1.50;;;;;;;;;;5076212;28;20287;-84
2023/03/26 00:03:36;;;;;;;4.05;2.60;;;;;;;;;;5075921;28;20229;-83
2023/03/26 00:06:08;;;;;;;3.63;2.75;;;;;;;;;;5075476;28;20227;-86
2023/03/26 00:08:37;;;;;;;3.38;2.28;;;;;;;;;;5067298;28;20580;-84
2023/03/26 00:11:06;;;;;;;1.33;1.23;;;;;;;;;;5075647;28;20308;-84
2023/03/26 00:13:34;;;;;;;3.03;1.30;;;;;;;;;;5075626;28;20194;-85
2023/03/26 00:16:02;;;;;;;1.20;1.10;;;;;;;;;;5076167;28;20268;-84
2023/03/26 00:18:33;;;;;;;2.45;1.73;;;;;;;;;;5075881;28;20257;-85
2023/03/26 00:21:04;;;;;;;1.73;1.63;;;;;;;;;;5075247;28;20201;-84
2023/03/26 00:23:34;;;;;;;2.13;1.00;;;;;;;;;;5075928;28;20246;-84
2023/03/26 00:26:02;;;;;;;0.68;0.68;;;;;;;;;;5075984;28;20713;-84
2023/03/26 00:28:30;;;;;;;0.70;0.70;;;;;;;;;;5075690;28;20315;-86
2023/03/26 00:31:01;;;;;;;1.70;0.70;;;;;;;;;;5076337;28;20196;-84
2023/03/26 00:33:30;;;;;;;2.17;1.17;;;;;;;;;;5076003;28;20681;-84
2023/03/26 00:36:00;;;;;;;1.25;1.10;;;;;;;;;;5075020;28;20204;-85
2023/03/26 00:38:29;;;;;;;1.83;0.95;;;;;;;;;;5072270;28;20213;-84
2023/03/26 00:41:04;;;;;;;0.90;0.90;;;;;;;;;;5076037;28;20232;-84
2023/03/26 00:43:33;;;;;;;0.50;0.50;;;;;;;;;;5075624;28;20239;-85
2023/03/26 00:46:01;;;;;;;1.77;0.93;;;;;;;;;;5075307;28;20208;-84
2023/03/26 00:48:29;;;;;;;0.63;0.60;;;;;;;;;;5076815;28;20252;-85
2023/03/26 00:50:58;;;;;;;0.70;0.70;;;;;;;;;;5075575;28;20216;-85
2023/03/26 00:53:25;;;;;;;0.50;0.50;;;;;;;;;;5075207;28;20284;-84
2023/03/26 00:55:53;;;;;;;0.70;0.68;;;;;;;;;;5075497;28;20196;-84
2023/03/26 00:58:21;;;;;;;1.23;0.80;;;;;;;;;;5075278;28;20325;-84
2023/03/26 01:00:56;;;;;;;0.73;0.63;;;;;;;;;;5075036;28;20239;-84
2023/03/26 01:03:24;;;;;;;0.70;0.70;;;;;;;;;;5074385;28;20272;-85
2023/03/26 01:05:55;;;;;;;0.60;0.60;;;;;;;;;;5074661;28;20189;-84
2023/03/26 01:08:31;;;;;;;0.50;0.50;;;;;;;;;;5088192;28;20647;-84
2023/03/26 01:11:06;;;;;;;0.55;0.55;;;;;;;;;;5080134;28;20251;-84
2023/03/26 01:13:38;;;;;;;0.60;0.60;;;;;;;;;;5075317;28;20199;-84
2023/03/26 01:16:10;;;;;;;0.40;0.40;;;;;;;;;;5075282;28;20265;-84
2023/03/26 01:18:40;;;;;;;1.00;0.50;;;;;;;;;;5070702;28;20217;-84
2023/03/26 01:21:12;;;;;;;0.50;0.50;;;;;;;;;;5071326;28;20208;-84
2023/03/26 01:23:47;;;;;;;0.43;0.43;;;;;;;;;;5074688;28;20181;-83
2023/03/26 01:26:36;;;;;;;0.40;0.40;;;;;;;;;;5074745;28;20196;-84
2023/03/26 01:29:07;;;;;;;1.20;0.90;;;;;;;;;;5075340;28;20227;-84
2023/03/26 01:31:40;;;;;;;0.40;0.40;;;;;;;;;;5059491;28;20204;-84
2023/03/26 01:34:14;;;;;;;0.80;0.50;;;;;;;;;;5059032;28;20213;-84
2023/03/26 01:36:47;;;;;;;0.68;0.68;;;;;;;;;;5062611;28;20193;-85
2023/03/26 01:39:21;;;;;;;0.82;0.80;;;;;;;;;;5062412;28;20194;-84
2023/03/26 01:42:01;;;;;;;0.60;0.60;;;;;;;;;;5068337;28;20193;-84
2023/03/26 01:44:34;;;;;;;0.60;0.60;;;;;;;;;;5074920;28;20195;-83
2023/03/26 01:47:02;;;;;;;0.50;0.50;;;;;;;;;;5074964;28;20338;-85
2023/03/26 01:49:30;;;;;;;1.27;0.60;;;;;;;;;;5081286;28;20251;-84
2023/03/26 01:51:58;;;;;;;0.50;0.50;;;;;;;;;;5091422;28;20189;-84
2023/03/26 01:54:30;;;;;;;3.30;0.60;;;;;;;;;;5074403;28;20209;-84
2023/03/26 01:57:08;;;;;;;1.23;0.63;;;;;;;;;;5074919;28;20254;-85
2023/03/26 01:59:55;;;;;;;0.30;0.30;;;;;;;;;;5056024;28;20269;-84
2023/03/26 02:02:29;;;;;;;0.40;0.40;;;;;;;;;;5074620;28;20672;-84
2023/03/26 02:05:02;;;;;;;0.60;0.60;;;;;;;;;;5074505;28;20283;-85
2023/03/26 02:07:36;;;;;;;0.50;0.50;;;;;;;;;;5074255;28;20308;-85
2023/03/26 02:10:10;;;;;;;1.45;0.55;;;;;;;;;;5073835;28;20252;-84
2023/03/26 02:12:39;;;;;;;0.70;0.70;;;;;;;;;;5071202;28;20201;-86
2023/03/26 02:15:10;;;;;;;0.50;0.50;;;;;;;;;;5059941;28;20239;-85
2023/03/26 02:17:39;;;;;;;0.63;0.40;;;;;;;;;;5058508;28;20247;-84
2023/03/26 02:20:09;;;;;;;0.55;0.55;;;;;;;;;;5074029;28;20228;-85
2023/03/26 02:22:39;;;;;;;0.45;0.45;;;;;;;;;;5066110;28;20204;-84
2023/03/26 02:25:09;;;;;;;0.60;0.60;;;;;;;;;;5080564;28;20295;-84
2023/03/26 02:27:38;;;;;;;0.65;0.65;;;;;;;;;;5074389;28;20228;-84
2023/03/26 02:30:09;;;;;;;1.55;0.60;;;;;;;;;;5074246;28;20224;-84
2023/03/26 02:32:37;;;;;;;0.95;0.80;;;;;;;;;;5073535;28;20257;-84
2023/03/26 02:35:06;;;;;;;1.33;0.50;;;;;;;;;;5071820;28;20201;-85
2023/03/26 02:37:34;;;;;;;0.57;0.57;;;;;;;;;;5075887;28;20611;-84
2023/03/26 02:40:04;;;;;;;0.90;0.88;;;;;;;;;;5077827;28;20661;-85
2023/03/26 02:42:32;;;;;;;1.25;0.80;;;;;;;;;;5074559;28;20201;-84
2023/03/26 02:45:00;;;;;;;0.60;0.60;;;;;;;;;;5066739;28;20638;-84
2023/03/26 02:47:28;;;;;;;0.60;0.60;;;;;;;;;;5074786;28;20776;-84
2023/03/26 02:49:55;;;;;;;0.63;0.63;;;;;;;;;;5064978;28;20235;-84
2023/03/26 02:52:23;;;;;;;0.70;0.70;;;;;;;;;;5078308;28;20221;-85
2023/03/26 02:54:50;;;;;;;0.77;0.52;;;;;;;;;;5077982;28;20255;-85
2023/03/26 02:57:18;;;;;;;0.50;0.50;;;;;;;;;;5076545;28;20232;-84
2023/03/26 02:59:45;;;;;;;0.98;0.47;;;;;;;;;;5072449;28;20283;-84
2023/03/26 03:02:14;;;;;;;0.40;0.40;;;;;;;;;;5075378;28;20215;-84
2023/03/26 03:04:42;;;;;;;0.40;0.40;;;;;;;;;;5057542;28;20233;-84
2023/03/26 03:07:13;;;;;;;0.60;0.60;;;;;;;;;;5067797;28;20224;-84
2023/03/26 03:09:40;;;;;;;0.88;0.80;;;;;;;;;;5077347;28;20658;-84
2023/03/26 03:12:08;;;;;;;0.80;0.80;;;;;;;;;;5064465;28;20208;-85
2023/03/26 03:14:36;;;;;;;0.82;0.80;;;;;;;;;;5069165;28;20236;-85
2023/03/26 03:17:04;;;;;;;0.80;0.80;;;;;;;;;;5076459;28;20253;-84
2023/03/26 03:19:33;;;;;;;1.00;0.88;;;;;;;;;;5076551;28;20323;-84
2023/03/26 03:22:00;;;;;;;0.63;0.63;;;;;;;;;;5077409;28;20662;-84
2023/03/26 03:24:28;;;;;;;1.17;1.10;;;;;;;;;;5076860;28;20243;-85
2023/03/26 03:26:56;;;;;;;1.30;0.93;;;;;;;;;;5073864;28;20303;-85
2023/03/26 03:29:24;;;;;;;1.33;1.20;;;;;;;;;;5076388;28;20294;-85
2023/03/26 03:31:51;;;;;;;1.20;1.08;;;;;;;;;;5076326;28;20311;-85
2023/03/26 03:34:20;;;;;;;4.28;1.60;;;;;;;;;;5075942;28;20220;-85
2023/03/26 03:36:49;;;;;;;2.60;1.50;;;;;;;;;;5075320;28;20225;-85
2023/03/26 03:39:16;;;;;;;2.47;1.40;;;;;;;;;;5075497;28;20292;-85
2023/03/26 03:41:44;;;;;;;1.23;1.13;;;;;;;;;;5075056;28;20232;-86
2023/03/26 03:44:11;;;;;;;1.35;1.20;;;;;;;;;;5075378;28;20687;-86
2023/03/26 03:46:39;;;;;;;0.93;0.93;;;;;;;;;;5074463;28;20646;-85
2023/03/26 03:49:06;;;;;;;1.90;1.10;;;;;;;;;;5075190;28;20197;-85
2023/03/26 03:51:34;;;;;;;2.03;1.25;;;;;;;;;;5067251;28;20320;-85
2023/03/26 03:54:03;;;;;;;2.05;1.20;;;;;;;;;;5075443;28;20237;-85
2023/03/26 03:56:30;;;;;;;1.58;1.33;;;;;;;;;;5066584;28;20196;-83
2023/03/26 03:58:58;;;;;;;1.58;1.48;;;;;;;;;;5075188;28;20235;-85
2023/03/26 04:01:25;;;;;;;2.83;1.65;;;;;;;;;;5075015;28;20247;-85
2023/03/26 04:03:53;;;;;;;2.42;1.42;;;;;;;;;;5075524;28;20692;-84
2023/03/26 04:06:20;;;;;;;3.38;1.38;;;;;;;;;;5075051;28;20741;-85
2023/03/26 04:08:48;;;;;;;2.50;1.80;;;;;;;;;;5074486;28;20306;-85
2023/03/26 04:11:17;;;;;;;2.15;1.50;;;;;;;;;;5073963;28;20217;-85
2023/03/26 04:13:44;;;;;;;2.97;1.98;;;;;;;;;;5074761;28;20193;-85
2023/03/26 04:16:12;;;;;;;2.92;1.33;;;;;;;;;;5071956;28;20211;-84
2023/03/26 04:18:39;;;;;;;3.50;1.50;;;;;;;;;;5074670;28;20213;-85
2023/03/26 04:21:07;;;;;;;4.25;1.88;;;;;;;;;;5075061;28;20291;-84
2023/03/26 04:23:35;;;;;;;1.80;1.70;;;;;;;;;;5074156;28;20201;-86
2023/03/26 04:26:05;;;;;;;6.00;2.17;;;;;;;;;;5070803;28;20203;-85
2023/03/26 04:28:41;;;;;;;2.20;2.00;;;;;;;;;;5075110;28;20304;-86
2023/03/26 04:31:12;;;;;;;1.83;1.27;;;;;;;;;;5075371;28;20293;-85
2023/03/26 04:33:40;;;;;;;1.30;1.25;;;;;;;;;;5074913;28;20204;-85
2023/03/26 04:36:09;;;;;;;1.45;1.30;;;;;;;;;;5074159;28;20705;-85
2023/03/26 04:38:42;;;;;;;1.25;1.15;;;;;;;;;;5070032;28;20309;-84
2023/03/26 04:41:11;;;;;;;3.05;1.70;;;;;;;;;;5074702;28;20197;-85
2023/03/26 04:43:46;;;;;;;2.95;1.90;;;;;;;;;;5074376;28;20189;-86
2023/03/26 04:46:13;;;;;;;2.80;2.10;;;;;;;;;;5075038;28;20192;-84
2023/03/26 04:48:41;;;;;;;3.65;2.03;;;;;;;;;;5074029;28;20225;-85
2023/03/26 04:51:08;;;;;;;3.55;2.22;;;;;;;;;;5074316;28;20316;-85
2023/03/26 04:53:36;;;;;;;2.40;1.88;;;;;;;;;;5074448;28;20201;-85
2023/03/26 04:56:09;;;;;;;6.88;2.13;;;;;;;;;;5075663;28;20201;-84
2023/03/26 04:58:36;;;;;;;3.70;2.20;;;;;;;;;;5075205;28;20240;-85
2023/03/26 05:01:06;;;;;;;2.97;1.92;;;;;;;;;;5076092;28;20292;-84
2023/03/26 05:03:34;;;;;;;5.57;2.00;;;;;;;;;;5063612;28;20207;-85
2023/03/26 05:06:02;;;;;;;4.55;2.78;;;;;;;;;;5066522;28;20221;-85
2023/03/26 05:08:29;;;;;;;2.63;1.95;;;;;;;;;;5074817;28;20252;-87
2023/03/26 05:10:57;;;;;;;2.97;1.70;;;;;;;;;;5075762;28;20212;-86
2023/03/26 05:13:25;;;;;;;3.72;2.10;;;;;;;;;;5066932;28;20663;-85
2023/03/26 05:15:52;;;;;;;4.25;1.95;;;;;;;;;;5075465;28;20605;-85
2023/03/26 05:18:21;;;;;;;3.10;1.83;;;;;;;;;;5074923;28;20749;-85
2023/03/26 05:20:48;;;;;;;3.55;2.10;;;;;;;;;;5075199;28;20229;-86
2023/03/26 05:23:16;;;;;;;6.32;2.30;;;;;;;;;;5070409;28;20288;-86
2023/03/26 05:25:43;;;;;;;3.78;1.90;;;;;;;;;;5074552;28;20205;-85
2023/03/26 05:28:11;;;;;;;9.02;2.13;;;;;;;;;;5074707;28;20259;-85
2023/03/26 05:30:39;;;;;;;4.15;1.88;;;;;;;;;;5074779;28;20284;-85
2023/03/26 05:33:06;;;;;;;2.90;1.90;;;;;;;;;;5074566;28;20311;-85
2023/03/26 05:35:36;;;;;;;2.95;1.80;;;;;;;;;;5065626;28;20224;-86
2023/03/26 05:38:03;;;;;;;7.75;2.40;;;;;;;;;;5074684;28;20220;-85
2023/03/26 05:40:31;;;;;;;3.10;1.60;;;;;;;;;;5074925;28;20560;-85
2023/03/26 05:42:58;;;;;;;5.90;2.25;;;;;;;;;;5074745;28;20303;-86
2023/03/26 05:45:26;;;;;;;3.08;2.33;;;;;;;;;;5075886;28;20850;-85
2023/03/26 05:47:54;;;;;;;6.15;1.83;;;;;;;;;;5074787;28;20228;-85
2023/03/26 05:50:22;;;;;;;1.50;1.40;;;;;;;;;;5075158;28;20205;-85
2023/03/26 05:52:51;;;;;;;3.33;1.60;;;;;;;;;;5064947;28;20213;-86
2023/03/26 05:55:18;;;;;;;3.85;1.88;;;;;;;;;;5068828;28;20303;-86
2023/03/26 05:57:46;;;;;;;5.57;2.50;;;;;;;;;;5074503;28;20221;-85
2023/03/26 06:00:15;;;;;;;6.40;2.65;;;;;;;;;;5074032;28;20645;-85
2023/03/26 06:02:43;;;;;;;3.28;1.90;;;;;;;;;;5074774;28;20630;-87
2023/03/26 06:05:11;;;;;;;4.15;1.88;;;;;;;;;;5072383;28;20708;-85
2023/03/26 06:07:38;;;;;;;5.45;1.95;;;;;;;;;;5072500;28;20220;-85
2023/03/26 06:10:09;;;;;;;2.35;1.75;;;;;;;;;;5072418;28;20216;-84
2023/03/26 06:12:37;;;;;;;1.60;1.33;;;;;;;;;;5073397;28;20327;-85
2023/03/26 06:15:06;;;;;;;2.53;1.65;;;;;;;;;;5073250;28;20571;-85
2023/03/26 06:17:33;;;;;;;2.25;1.40;;;;;;;;;;5073607;28;20304;-85
2023/03/26 06:20:01;;;;;;;1.55;1.25;;;;;;;;;;5073191;28;20361;-85
2023/03/26 06:22:28;;;;;;;1.42;1.33;;;;;;;;;;5073983;28;20225;-85
2023/03/26 06:24:56;;;;;;;1.58;1.10;;;;;;;;;;5073178;28;20207;-85
2023/03/26 06:27:25;;;;;;;1.52;1.38;;;;;;;;;;5073647;28;20308;-86
2023/03/26 06:29:52;;;;;;;2.08;1.23;;;;;;;;;;5073607;28;20217;-85
2023/03/26 06:32:20;;;;;;;1.83;1.60;;;;;;;;;;5073516;28;20303;-86
2023/03/26 06:34:47;;;;;;;1.85;1.27;;;;;;;;;;5062786;28;20244;-85
2023/03/26 06:37:15;;;;;;;3.25;2.17;;;;;;;;;;5061927;28;20219;-85
2023/03/26 06:39:42;;;;;;;2.20;1.40;;;;;;;;;;5072937;28;20223;-85
2023/03/26 06:42:10;;;;;;;1.63;1.52;;;;;;;;;;5074056;28;20250;-86
2023/03/26 06:44:39;;;;;;;6.72;1.50;;;;;;;;;;5072687;28;20236;-85
2023/03/26 06:47:06;;;;;;;2.17;1.38;;;;;;;;;;5065308;28;20642;-85
2023/03/26 06:49:34;;;;;;;3.42;1.83;;;;;;;;;;5053012;28;20198;-85
2023/03/26 06:52:03;;;;;;;3.15;1.92;;;;;;;;;;5068967;28;20208;-86
2023/03/26 06:54:31;;;;;;;3.22;2.20;;;;;;;;;;5073307;28;20307;-85
2023/03/26 06:56:59;;;;;;;2.75;1.60;;;;;;;;;;5073226;28;20801;-85
2023/03/26 06:59:27;;;;;;;1.98;1.60;;;;;;;;;;5073006;28;20227;-85
2023/03/26 07:01:56;;;;;;;2.58;1.50;;;;;;;;;;5072953;28;20284;-85
2023/03/26 07:04:31;;;;;;;3.05;1.83;;;;;;;;;;5071131;28;20284;-86
2023/03/26 07:06:59;;;;;;;12.80;3.00;;;;;;;;;;5072376;28;20216;-85
2023/03/26 07:09:29;;;;;;;6.82;2.05;;;;;;;;;;5071745;28;20207;-85
2023/03/26 07:11:57;;;;;;;6.32;2.47;;;;;;;;;;5065659;28;20616;-86
2023/03/26 07:14:26;;;;;;;6.60;2.00;;;;;;;;;;5072230;28;20231;-85
2023/03/26 07:16:57;;;;;;;5.03;1.60;;;;;;;;;;5072325;28;20244;-86
2023/03/26 07:19:25;;;;;;;3.45;2.00;;;;;;;;;;5071980;28;20280;-85
2023/03/26 07:21:53;;;;;;;6.15;2.58;;;;;;;;;;5074710;28;20225;-85
2023/03/26 07:24:21;;;;;;;4.22;1.90;;;;;;;;;;5075001;28;20650;-86
2023/03/26 07:26:55;;;;;;;4.78;3.00;;;;;;;;;;5075240;28;20239;-86
2023/03/26 07:29:32;;;;;;;4.60;1.65;;;;;;;;;;5069681;28;20284;-86
2023/03/26 07:32:09;;;;;;;4.22;2.00;;;;;;;;;;5075597;28;20213;-86
2023/03/26 07:34:50;;;;;;;5.35;2.33;;;;;;;;;;5075533;28;20209;-85
2023/03/26 07:37:33;;;;;;;3.85;1.85;;;;;;;;;;5077390;28;20259;-85
2023/03/26 07:40:06;;;;;;;5.03;2.08;;;;;;;;;;5075623;28;20197;-84
2023/03/26 07:42:50;;;;;;;4.40;1.90;;;;;;;;;;5076712;28;20197;-84
2023/03/26 07:45:22;;;;;;;5.93;2.40;;;;;;;;;;5075473;28;20201;-84
2023/03/26 07:47:55;;;;;;;4.13;2.42;;;;;;;;;;5076165;28;20295;-84
2023/03/26 07:50:25;;;;;;;5.70;2.15;;;;;;;;;;5069610;28;20205;-84
2023/03/26 07:52:54;;;;;;;5.78;1.80;;;;;;;;;;5076358;28;20221;-85
2023/03/26 07:55:23;;;;;;;6.13;1.85;;;;;;;;;;5075654;28;20675;-85
2023/03/26 07:58:02;;;;;;;5.32;1.98;;;;;;;;;;5075516;28;20826;-85
2023/03/26 08:00:34;;;;;;;3.20;1.90;;;;;;;;;;5075081;28;20217;-84
2023/03/26 08:03:23;;;;;;;4.85;2.25;;;;;;;;;;5075991;28;20279;-85
2023/03/26 08:05:57;;;;;;;5.35;1.95;;;;;;;;;;5071369;28;20208;-84
2023/03/26 08:08:32;;;;;;;5.15;2.00;;;;;;;;;;5061072;28;20223;-84
2023/03/26 08:11:14;;;;;;;5.18;2.00;;;;;;;;;;5062955;28;20201;-83
2023/03/26 08:14:02;;;;;;;6.18;2.60;;;;;;;;;;5066221;28;20216;-83
2023/03/26 08:16:36;;;;;;;5.05;1.63;;;;;;;;;;5075918;28;20717;-84
2023/03/26 08:19:16;;;;;;;11.75;2.92;;;;;;;;;;5075845;28;20188;-84
2023/03/26 08:21:49;;;;;;;6.25;3.05;;;;;;;;;;5075506;28;20197;-82
2023/03/26 08:24:22;;;;;;;7.65;2.70;;;;;;;;;;5074509;28;20197;-84
2023/03/26 08:26:56;;;;;;;4.97;2.15;;;;;;;;;;5072202;28;20228;-83
2023/03/26 08:29:31;;;;;;;7.07;2.20;;;;;;;;;;5063427;28;20241;-83
2023/03/26 08:32:00;;;;;;;3.83;2.35;;;;;;;;;;5070872;28;20326;-83
2023/03/26 08:34:29;;;;;;;4.30;2.35;;;;;;;;;;5073188;28;20311;-83
2023/03/26 08:36:57;;;;;;;3.92;1.98;;;;;;;;;;5072973;28;20217;-83
2023/03/26 08:39:25;;;;;;;6.45;3.33;;;;;;;;;;5075115;28;20189;-84
2023/03/26 08:42:30;;;;;;;8.68;1.75;;;;;;;;;;5074863;28;20197;-85
2023/03/26 08:45:50;;;;;;;7.18;2.80;;;;;;;;;;5072029;28;20227;-83
2023/03/26 08:49:03;;;;;;;2.50;1.92;;;;;;;;;;5049505;28;20216;-83
2023/03/26 08:52:23;;;;;;;7.47;2.85;;;;;;;;;;5077153;28;20227;-83
2023/03/26 08:55:31;;;;;;;3.28;2.40;;;;;;;;;;5078055;28;20284;-85
2023/03/26 08:58:34;;;;;;;2.15;1.80;;;;;;;;;;5070085;28;20223;-84
2023/03/26 09:01:35;;;;;;;6.32;3.03;;;;;;;;;;5060665;28;20201;-85
2023/03/26 09:04:52;;;;;;;6.47;2.10;;;;;;;;;;5065160;28;20253;-84
2023/03/26 09:08:24;;;;;;;4.82;1.90;;;;;;;;;;5056555;28;20299;-85
2023/03/26 09:11:02;;;;;;;8.43;1.90;;;;;;;;;;5040924;28;20670;-85
2023/03/26 09:14:25;;;;;;;5.25;2.25;;;;;;;;;;5080924;28;20289;-85
2023/03/26 09:17:47;;;;;;;4.00;2.28;;;;;;;;;;5022921;28;20296;-84
2023/03/26 09:20:54;;;;;;;3.55;2.08;;;;;;;;;;5021195;28;20285;-85
2023/03/26 09:24:27;;;;;;;8.98;2.42;;;;;;;;;;5017757;28;20831;-85
2023/03/26 09:27:07;;;;;;;3.45;1.60;;;;;;;;;;5079957;28;20331;-84
2023/03/26 09:30:26;;;;;;;3.60;2.60;;;;;;;;;;5070880;28;20287;-83
2023/03/26 09:33:47;;;;;;;3.75;1.80;;;;;;;;;;5072743;28;20231;-83
2023/03/26 09:37:11;;;;;;;4.90;1.83;;;;;;;;;;5072762;28;20279;-84
2023/03/26 09:39:52;;;;;;;4.10;1.60;;;;;;;;;;5012365;28;20710;-84
2023/03/26 09:42:29;;;;;;;6.13;3.10;;;;;;;;;;5031971;28;20195;-84
2023/03/26 09:45:32;;;;;;;3.40;1.95;;;;;;;;;;5058631;28;20301;-85
2023/03/26 09:48:46;;;;;;;2.58;1.67;;;;;;;;;;5069330;28;20311;-84
2023/03/26 09:51:47;;;;;;;6.05;2.40;;;;;;;;;;5056050;28;20196;-85
2023/03/26 09:54:54;;;;;;;4.15;1.88;;;;;;;;;;5074216;28;20250;-85
2023/03/26 09:57:36;;;;;;;5.53;2.15;;;;;;;;;;5038578;28;20252;-85
2023/03/26 10:00:30;;;;;;;3.53;1.63;;;;;;;;;;5060982;28;20221;-85
2023/03/26 10:03:26;;;;;;;5.32;1.63;;;;;;;;;;5069716;28;20189;-85
2023/03/26 10:06:12;;;;;;;4.15;1.83;;;;;;;;;;5073497;28;20189;-84
2023/03/26 10:09:17;;;;;;;2.90;1.73;;;;;;;;;;5065512;28;20487;-84
2023/03/26 10:12:06;;;;;;;1.40;1.30;;;;;;;;;;5049159;28;20200;-85
2023/03/26 10:14:39;;;;;;;2.33;1.58;;;;;;;;;;5066197;28;20211;-85
2023/03/26 10:17:24;;;;;;;2.78;1.75;;;;;;;;;;5073696;28;20312;-85
2023/03/26 10:20:07;;;;;;;2.63;1.33;;;;;;;;;;5066878;28;20204;-85
2023/03/26 10:22:49;;;;;;;1.20;1.10;;;;;;;;;;5062313;28;20280;-83
2023/03/26 10:25:29;;;;;;;5.38;1.70;;;;;;;;;;5070333;28;20197;-84
2023/03/26 10:28:19;;;;;;;2.97;1.50;;;;;;;;;;5069575;28;20223;-84
2023/03/26 10:31:20;;;;;;;1.67;1.08;;;;;;;;;;5075307;28;20207;-83
2023/03/26 10:34:00;;;;;;;1.55;1.15;;;;;;;;;;5066639;28;20630;-84
2023/03/26 10:36:34;;;;;;;2.72;1.35;;;;;;;;;;5074533;28;20204;-84
2023/03/26 10:39:55;;;;;;;1.73;1.17;;;;;;;;;;5075506;28;20685;-84
2023/03/26 10:42:51;;;;;;;2.92;1.70;;;;;;;;;;5076561;28;20292;-85
2023/03/26 10:45:55;;;;;;;2.28;1.63;;;;;;;;;;5068334;28;20279;-83
2023/03/26 10:48:40;;;;;;;2.10;1.30;;;;;;;;;;5058428;28;20780;-85
2023/03/26 10:51:35;;;;;;;1.17;0.90;;;;;;;;;;5069713;28;20204;-85
2023/03/26 10:54:08;;;;;;;1.08;1.00;;;;;;;;;;5073417;28;20244;-86
2023/03/26 10:56:38;;;;;;;2.05;1.20;;;;;;;;;;5075827;28;20208;-86
2023/03/26 10:59:08;;;;;;;2.00;0.98;;;;;;;;;;5075729;28;20197;-85
2023/03/26 11:01:43;;;;;;;0.90;0.80;;;;;;;;;;5072925;28;20276;-85
2023/03/26 11:04:31;;;;;;;2.20;1.30;;;;;;;;;;5075256;28;20207;-85
2023/03/26 11:07:09;;;;;;;1.95;1.15;;;;;;;;;;5075994;28;20271;-85
2023/03/26 11:09:43;;;;;;;1.77;1.10;;;;;;;;;;5075749;28;20255;-86
2023/03/26 11:12:17;;;;;;;1.48;0.93;;;;;;;;;;5076597;28;20283;-86
2023/03/26 11:14:51;;;;;;;2.67;1.10;;;;;;;;;;5057604;28;20628;-86
2023/03/26 11:17:33;;;;;;;1.83;1.13;;;;;;;;;;5074977;28;20713;-86
2023/03/26 11:20:07;;;;;;;2.35;1.40;;;;;;;;;;5074886;28;20223;-85
2023/03/26 11:22:50;;;;;;;5.15;1.65;;;;;;;;;;5073199;28;20196;-85
2023/03/26 11:25:31;;;;;;;2.83;1.35;;;;;;;;;;5070710;28;20197;-86
2023/03/26 11:28:17;;;;;;;4.22;2.72;;;;;;;;;;5075750;28;20296;-85
2023/03/26 11:30:48;;;;;;;3.92;1.73;;;;;;;;;;5074428;28;20197;-86
2023/03/26 11:33:21;;;;;;;3.08;1.70;;;;;;;;;;5075769;28;20225;-86
2023/03/26 11:35:50;;;;;;;3.13;2.22;;;;;;;;;;5073769;28;20216;-86
2023/03/26 11:38:21;;;;;;;4.43;1.90;;;;;;;;;;5057497;28;20218;-86
2023/03/26 11:40:52;;;;;;;1.48;1.20;;;;;;;;;;5057758;28;20736;-86
2023/03/26 11:43:26;;;;;;;1.63;1.10;;;;;;;;;;5071571;28;20201;-86
2023/03/26 11:45:53;;;;;;;1.50;1.40;;;;;;;;;;5075037;28;20668;-86
2023/03/26 11:48:28;;;;;;;0.70;0.70;;;;;;;;;;5073252;28;20235;-86
2023/03/26 11:51:03;;;;;;;0.88;0.68;;;;;;;;;;5075416;28;20188;-86
2023/03/26 11:53:37;;;;;;;2.72;0.82;;;;;;;;;;5075109;28;20185;-86
2023/03/26 11:56:13;;;;;;;0.45;0.40;;;;;;;;;;5075320;28;20224;-86
2023/03/26 11:58:47;;;;;;;0.60;0.60;;;;;;;;;;5075021;28;20744;-86
2023/03/26 12:01:18;;;;;;;1.25;0.60;;;;;;;;;;5074852;28;20185;-86
2023/03/26 12:04:03;;;;;;;1.23;0.70;;;;;;;;;;5075194;28;20192;-85
2023/03/26 12:06:31;;;;;;;0.80;0.80;;;;;;;;;;5073695;28;20276;-86
2023/03/26 12:08:59;;;;;;;0.45;0.40;;;;;;;;;;5071906;28;20204;-86
2023/03/26 12:11:33;;;;;;;0.90;0.63;;;;;;;;;;5072330;28;20207;-86
2023/03/26 12:14:04;;;;;;;0.60;0.60;;;;;;;;;;5074490;28;20197;-86
2023/03/26 12:16:31;;;;;;;1.70;1.13;;;;;;;;;;5072645;28;20217;-86
2023/03/26 12:19:04;;;;;;;1.90;1.02;;;;;;;;;;5065674;28;20256;-86
2023/03/26 12:21:45;;;;;;;3.20;0.80;;;;;;;;;;5074515;28;20246;-86
2023/03/26 12:24:29;;;;;;;1.45;0.77;;;;;;;;;;5072485;28;20189;-85
2023/03/26 12:27:01;;;;;;;0.60;0.60;;;;;;;;;;5074473;28;20219;-86
2023/03/26 12:29:33;;;;;;;0.65;0.60;;;;;;;;;;5075097;28;20213;-86
2023/03/26 12:32:07;;;;;;;1.23;0.70;;;;;;;;;;5075514;28;20193;-86
2023/03/26 12:34:38;;;;;;;0.47;0.47;;;;;;;;;;5073384;28;20203;-86
2023/03/26 12:37:08;;;;;;;0.40;0.40;;;;;;;;;;5069405;28;20249;-86
2023/03/26 12:39:39;;;;;;;0.30;0.30;;;;;;;;;;5074688;28;20223;-86
2023/03/26 12:42:24;;;;;;;0.30;0.30;;;;;;;;;;5074343;28;20303;-83
2023/03/26 12:44:53;;;;;;;0.30;0.30;;;;;;;;;;5073662;28;20243;-84
2023/03/26 12:47:22;;;;;;;0.30;0.28;;;;;;;;;;5054238;28;20245;-84
2023/03/26 12:49:53;;;;;;;0.40;0.40;;;;;;;;;;5053699;28;20236;-84
2023/03/26 12:52:44;;;;;;;0.40;0.40;;;;;;;;;;5053913;28;20271;-85
2023/03/26 12:55:31;;;;;;;1.98;0.40;;;;;;;;;;5067600;28;20205;-84
2023/03/26 12:58:10;;;;;;;0.40;0.40;;;;;;;;;;5073785;28;20299;-83
2023/03/26 13:00:48;;;;;;;0.20;0.20;;;;;;;;;;5073589;28;20191;-85
2023/03/26 13:03:36;;;;;;;0.30;0.30;;;;;;;;;;5073935;28;20604;-84
2023/03/26 13:06:20;;;;;;;0.30;0.30;;;;;;;;;;5073783;28;20280;-83
2023/03/26 13:09:19;;;;;;;0.40;0.40;;;;;;;;;;5073132;28;20313;-85
2023/03/26 13:11:56;;;;;;;0.30;0.30;;;;;;;;;;5038773;28;20198;-84
2023/03/26 13:14:44;;;;;;;0.45;0.43;;;;;;;;;;5054610;28;20189;-85
2023/03/26 13:17:22;;;;;;;0.60;0.40;;;;;;;;;;5072766;28;20251;-84
2023/03/26 13:19:58;;;;;;;0.50;0.50;;;;;;;;;;5073903;28;20199;-84
2023/03/26 13:22:34;;;;;;;0.82;0.60;;;;;;;;;;5074437;28;20195;-84
2023/03/26 13:25:13;;;;;;;0.50;0.50;;;;;;;;;;5074626;28;20193;-84
2023/03/26 13:27:52;;;;;;;0.22;0.22;;;;;;;;;;5073940;28;20252;-84
2023/03/26 13:30:29;;;;;;;0.85;0.77;;;;;;;;;;5073779;28;20181;-84
2023/03/26 13:33:25;;;;;;;0.80;0.80;;;;;;;;;;5072883;28;20189;-84
2023/03/26 13:35:59;;;;;;;0.52;0.52;;;;;;;;;;5073918;28;20186;-84
2023/03/26 13:38:39;;;;;;;0.50;0.50;;;;;;;;;;5074386;28;20306;-84
2023/03/26 13:41:12;;;;;;;0.52;0.52;;;;;;;;;;5074099;28;20185;-84
2023/03/26 13:43:53;;;;;;;0.57;0.57;;;;;;;;;;5074283;28;20228;-84
2023/03/26 13:46:29;;;;;;;1.10;1.10;;;;;;;;;;5074063;28;20639;-84
2023/03/26 13:49:00;;;;;;;0.60;0.60;;;;;;;;;;5073976;28;20268;-84
2023/03/26 13:51:33;;;;;;;0.60;0.60;;;;;;;;;;5073912;28;20189;-84
2023/03/26 13:54:10;;;;;;;0.63;0.60;;;;;;;;;;5074861;28;20213;-84
2023/03/26 13:56:42;;;;;;;0.68;0.68;;;;;;;;;;5073634;28;20641;-84
2023/03/26 13:59:16;;;;;;;0.70;0.70;;;;;;;;;;5073438;28;20185;-84
2023/03/26 14:01:49;;;;;;;1.20;1.10;;;;;;;;;;5073680;28;20277;-83
2023/03/26 14:04:23;;;;;;;0.80;0.80;;;;;;;;;;5074219;28;20201;-84
2023/03/26 14:06:56;;;;;;;0.88;0.70;;;;;;;;;;5073761;28;20217;-84
2023/03/26 14:09:31;;;;;;;1.83;1.00;;;;;;;;;;5073842;28;20197;-83
2023/03/26 14:12:24;;;;;;;0.88;0.80;;;;;;;;;;5073875;28;20187;-84
2023/03/26 14:14:54;;;;;;;0.95;0.90;;;;;;;;;;5054313;28;20221;-84
2023/03/26 14:17:27;;;;;;;1.35;1.30;;;;;;;;;;5071389;28;20613;-83
2023/03/26 14:20:38;;;;;;;1.00;1.00;;;;;;;;;;5073674;28;20181;-84
2023/03/26 14:23:25;;;;;;;1.25;1.15;;;;;;;;;;5025972;28;20564;-84
2023/03/26 14:26:07;;;;;;;0.90;0.90;;;;;;;;;;5073277;28;20189;-86
2023/03/26 14:29:13;;;;;;;1.63;1.35;;;;;;;;;;5072854;28;20225;-86
2023/03/26 14:31:45;;;;;;;1.48;0.77;;;;;;;;;;5061935;28;20203;-86
2023/03/26 14:34:28;;;;;;;1.15;1.15;;;;;;;;;;5077115;28;20272;-87
2023/03/26 14:37:32;;;;;;;1.48;1.38;;;;;;;;;;5076520;28;20610;-86
2023/03/26 14:40:28;;;;;;;1.52;1.42;;;;;;;;;;5056809;28;20185;-86
2023/03/26 14:43:16;;;;;;;2.00;1.30;;;;;;;;;;5060538;28;20287;-86
2023/03/26 14:46:03;;;;;;;1.20;1.10;;;;;;;;;;5076358;28;20231;-86
2023/03/26 14:49:30;;;;;;;1.20;1.10;;;;;;;;;;5076416;28;20221;-86
2023/03/26 14:52:05;;;;;;;1.10;1.10;;;;;;;;;;5021015;28;20244;-84
2023/03/26 14:54:36;;;;;;;1.58;1.05;;;;;;;;;;5075910;28;20567;-85
2023/03/26 14:57:53;;;;;;;0.95;0.93;;;;;;;;;;5076044;28;20670;-85
2023/03/26 15:01:08;;;;;;;1.10;1.10;;;;;;;;;;5056288;28;20190;-85
2023/03/26 15:04:52;;;;;;;0.90;0.90;;;;;;;;;;5056935;28;20217;-86
2023/03/26 15:07:50;;;;;;;0.80;0.80;;;;;;;;;;4996516;28;20234;-85
2023/03/26 15:11:00;;;;;;;0.80;0.80;;;;;;;;;;4995059;28;20203;-86
2023/03/26 15:13:55;;;;;;;0.88;0.88;;;;;;;;;;5070482;28;20235;-85
2023/03/26 15:17:11;;;;;;;0.80;0.80;;;;;;;;;;5076382;28;20326;-85
2023/03/26 15:20:51;;;;;;;0.80;0.80;;;;;;;;;;5057413;28;20201;-83
2023/03/26 15:24:23;;;;;;;0.70;0.70;;;;;;;;;;5013742;28;20207;-85
2023/03/26 15:27:51;;;;;;;0.75;0.75;;;;;;;;;;4999982;28;20627;-86
2023/03/26 15:30:49;;;;;;;0.70;0.70;;;;;;;;;;5054964;28;20205;-84
2023/03/26 15:34:02;;;;;;;0.70;0.70;;;;;;;;;;5066961;28;20258;-84
2023/03/26 15:37:27;;;;;;;0.80;0.80;;;;;;;;;;5068596;28;20228;-84
2023/03/26 15:40:11;;;;;;;0.88;0.88;;;;;;;;;;5076198;28;20201;-84
2023/03/26 15:42:54;;;;;;;0.63;0.63;;;;;;;;;;5076236;28;20200;-84
2023/03/26 15:45:35;;;;;;;0.90;0.90;;;;;;;;;;5074251;28;20201;-83